South Danville, New Hampshire
Current Conditions -  °F | °C
As of 4:54 PM on Tuesday 25 Nov 2014 (Local Time) from KLWM Reporting Station
Clear Clear  
Wind Chill: 55°   Ceiling: Unl
Heat Index: 55°   Visibility: 10mi
Dew Point: 31°   Wind: 9mph
Humidity: 40%   Direction: 240°WSW
Pressure: 29.95"   Gusts: NA
Location:  42.9217°N, 71.1138°W
Report Text: KLWM 252154Z 24008KT 10SM CLR 13/M01 A2995 RMK AO2 SLP141 T01281006
Loading
Personal Weather Stations






























Interactive Weather Map New forecast layout! Learn more

10-Day Weather Forecast

Advertisements
Track Severe Weather on mobile